sensor_id;sensor_type;location;lat;lon;timestamp;P1;durP1;ratioP1;P2;durP2;ratioP2
15624;SDS011;7912;51.376;6.126;2023-08-31T00:01:50;4.57;;;3.53;;
15624;SDS011;7912;51.376;6.126;2023-08-31T00:04:19;3.63;;;3.20;;
15624;SDS011;7912;51.376;6.126;2023-08-31T00:06:47;4.00;;;3.47;;
15624;SDS011;7912;51.376;6.126;2023-08-31T00:09:14;3.87;;;3.57;;
15624;SDS011;7912;51.376;6.126;2023-08-31T00:11:42;4.87;;;3.50;;
15624;SDS011;7912;51.376;6.126;2023-08-31T00:14:09;3.87;;;3.43;;
15624;SDS011;7912;51.376;6.126;2023-08-31T00:16:36;5.07;;;3.70;;
15624;SDS011;7912;51.376;6.126;2023-08-31T00:19:04;5.97;;;3.53;;
15624;SDS011;7912;51.376;6.126;2023-08-31T00:21:34;4.73;;;3.50;;
15624;SDS011;7912;51.376;6.126;2023-08-31T00:24:02;3.80;;;3.43;;
15624;SDS011;7912;51.376;6.126;2023-08-31T00:26:29;3.17;;;2.90;;
15624;SDS011;7912;51.376;6.126;2023-08-31T00:28:57;3.37;;;3.07;;
15624;SDS011;7912;51.376;6.126;2023-08-31T00:31:24;4.23;;;3.30;;
15624;SDS011;7912;51.376;6.126;2023-08-31T00:33:54;3.07;;;2.80;;
15624;SDS011;7912;51.376;6.126;2023-08-31T00:36:21;4.13;;;3.17;;
15624;SDS011;7912;51.376;6.126;2023-08-31T00:38:49;3.20;;;2.87;;
15624;SDS011;7912;51.376;6.126;2023-08-31T00:41:17;3.60;;;3.30;;
15624;SDS011;7912;51.376;6.126;2023-08-31T00:43:44;5.00;;;3.67;;
15624;SDS011;7912;51.376;6.126;2023-08-31T00:46:14;4.07;;;3.17;;
15624;SDS011;7912;51.376;6.126;2023-08-31T00:48:43;3.40;;;3.10;;
15624;SDS011;7912;51.376;6.126;2023-08-31T00:51:10;4.50;;;3.27;;
15624;SDS011;7912;51.376;6.126;2023-08-31T00:53:38;5.43;;;2.90;;
15624;SDS011;7912;51.376;6.126;2023-08-31T00:56:05;3.50;;;3.10;;
15624;SDS011;7912;51.376;6.126;2023-08-31T00:58:34;3.83;;;3.10;;
15624;SDS011;7912;51.376;6.126;2023-08-31T01:01:12;3.73;;;2.80;;
15624;SDS011;7912;51.376;6.126;2023-08-31T01:09:40;4.20;;;3.43;;
15624;SDS011;7912;51.376;6.126;2023-08-31T01:12:40;3.00;;;2.80;;
15624;SDS011;7912;51.376;6.126;2023-08-31T01:15:18;3.37;;;3.03;;
15624;SDS011;7912;51.376;6.126;2023-08-31T01:17:47;3.90;;;3.30;;
15624;SDS011;7912;51.376;6.126;2023-08-31T01:20:30;3.60;;;3.30;;
15624;SDS011;7912;51.376;6.126;2023-08-31T01:23:16;3.30;;;3.00;;
15624;SDS011;7912;51.376;6.126;2023-08-31T01:25:47;3.77;;;3.47;;
15624;SDS011;7912;51.376;6.126;2023-08-31T01:28:15;5.20;;;3.40;;
15624;SDS011;7912;51.376;6.126;2023-08-31T01:30:42;4.03;;;3.73;;
15624;SDS011;7912;51.376;6.126;2023-08-31T01:33:10;5.37;;;3.57;;
15624;SDS011;7912;51.376;6.126;2023-08-31T01:35:43;3.17;;;2.87;;
15624;SDS011;7912;51.376;6.126;2023-08-31T01:38:20;3.63;;;3.33;;
15624;SDS011;7912;51.376;6.126;2023-08-31T01:41:00;6.10;;;4.00;;
15624;SDS011;7912;51.376;6.126;2023-08-31T01:43:33;3.70;;;3.40;;
15624;SDS011;7912;51.376;6.126;2023-08-31T01:46:01;3.50;;;3.10;;
15624;SDS011;7912;51.376;6.126;2023-08-31T01:48:29;3.67;;;3.37;;
15624;SDS011;7912;51.376;6.126;2023-08-31T01:50:57;3.83;;;3.53;;
15624;SDS011;7912;51.376;6.126;2023-08-31T01:53:26;4.17;;;3.30;;
15624;SDS011;7912;51.376;6.126;2023-08-31T01:55:53;3.93;;;3.60;;
15624;SDS011;7912;51.376;6.126;2023-08-31T01:58:21;3.67;;;3.30;;
15624;SDS011;7912;51.376;6.126;2023-08-31T02:00:49;3.60;;;3.30;;
15624;SDS011;7912;51.376;6.126;2023-08-31T02:03:16;4.10;;;3.70;;
15624;SDS011;7912;51.376;6.126;2023-08-31T02:05:44;5.67;;;3.63;;
15624;SDS011;7912;51.376;6.126;2023-08-31T02:08:11;3.87;;;3.47;;
15624;SDS011;7912;51.376;6.126;2023-08-31T02:10:38;3.97;;;3.57;;
15624;SDS011;7912;51.376;6.126;2023-08-31T02:13:06;5.73;;;3.50;;
15624;SDS011;7912;51.376;6.126;2023-08-31T02:15:34;3.60;;;3.30;;
15624;SDS011;7912;51.376;6.126;2023-08-31T02:18:05;3.93;;;3.63;;
15624;SDS011;7912;51.376;6.126;2023-08-31T02:20:34;3.73;;;3.37;;
15624;SDS011;7912;51.376;6.126;2023-08-31T02:23:02;4.13;;;3.73;;
15624;SDS011;7912;51.376;6.126;2023-08-31T02:25:30;4.03;;;3.53;;
15624;SDS011;7912;51.376;6.126;2023-08-31T02:27:57;3.77;;;3.20;;
15624;SDS011;7912;51.376;6.126;2023-08-31T02:30:26;3.70;;;3.17;;
15624;SDS011;7912;51.376;6.126;2023-08-31T02:32:53;3.57;;;3.27;;
15624;SDS011;7912;51.376;6.126;2023-08-31T02:35:21;4.50;;;3.47;;
15624;SDS011;7912;51.376;6.126;2023-08-31T02:37:48;4.20;;;3.80;;
15624;SDS011;7912;51.376;6.126;2023-08-31T02:40:16;3.97;;;3.53;;
15624;SDS011;7912;51.376;6.126;2023-08-31T02:42:43;4.13;;;3.73;;
15624;SDS011;7912;51.376;6.126;2023-08-31T02:45:10;3.93;;;3.63;;
15624;SDS011;7912;51.376;6.126;2023-08-31T02:47:38;4.50;;;4.07;;
15624;SDS011;7912;51.376;6.126;2023-08-31T02:50:06;4.13;;;3.73;;
15624;SDS011;7912;51.376;6.126;2023-08-31T02:52:34;4.10;;;3.30;;
15624;SDS011;7912;51.376;6.126;2023-08-31T02:55:01;3.93;;;3.60;;
15624;SDS011;7912;51.376;6.126;2023-08-31T02:57:31;4.07;;;3.33;;
15624;SDS011;7912;51.376;6.126;2023-08-31T02:59:59;4.30;;;3.73;;
15624;SDS011;7912;51.376;6.126;2023-08-31T03:02:26;3.50;;;3.20;;
15624;SDS011;7912;51.376;6.126;2023-08-31T03:04:55;3.77;;;3.47;;
15624;SDS011;7912;51.376;6.126;2023-08-31T03:07:22;4.60;;;3.70;;
15624;SDS011;7912;51.376;6.126;2023-08-31T03:09:50;3.57;;;3.27;;
15624;SDS011;7912;51.376;6.126;2023-08-31T03:12:17;4.00;;;3.60;;
15624;SDS011;7912;51.376;6.126;2023-08-31T03:14:44;3.90;;;3.33;;
15624;SDS011;7912;51.376;6.126;2023-08-31T03:17:12;4.10;;;3.27;;
15624;SDS011;7912;51.376;6.126;2023-08-31T03:19:39;4.53;;;3.50;;
15624;SDS011;7912;51.376;6.126;2023-08-31T03:22:08;3.63;;;3.33;;
15624;SDS011;7912;51.376;6.126;2023-08-31T03:24:35;4.27;;;3.67;;
15624;SDS011;7912;51.376;6.126;2023-08-31T03:27:02;4.03;;;3.47;;
15624;SDS011;7912;51.376;6.126;2023-08-31T03:29:30;4.23;;;3.67;;
15624;SDS011;7912;51.376;6.126;2023-08-31T03:31:59;4.00;;;3.60;;
15624;SDS011;7912;51.376;6.126;2023-08-31T03:34:30;4.27;;;3.63;;
15624;SDS011;7912;51.376;6.126;2023-08-31T03:36:58;3.77;;;3.37;;
15624;SDS011;7912;51.376;6.126;2023-08-31T03:39:26;4.57;;;3.30;;
15624;SDS011;7912;51.376;6.126;2023-08-31T03:41:53;4.73;;;3.50;;
15624;SDS011;7912;51.376;6.126;2023-08-31T03:44:21;3.30;;;3.07;;
15624;SDS011;7912;51.376;6.126;2023-08-31T03:46:48;3.53;;;3.23;;
15624;SDS011;7912;51.376;6.126;2023-08-31T03:49:15;3.47;;;3.17;;
15624;SDS011;7912;51.376;6.126;2023-08-31T03:51:43;3.87;;;3.47;;
15624;SDS011;7912;51.376;6.126;2023-08-31T03:54:10;4.10;;;3.60;;
15624;SDS011;7912;51.376;6.126;2023-08-31T03:56:39;3.80;;;3.40;;
15624;SDS011;7912;51.376;6.126;2023-08-31T03:59:07;4.17;;;3.50;;
15624;SDS011;7912;51.376;6.126;2023-08-31T04:01:34;3.80;;;3.40;;
15624;SDS011;7912;51.376;6.126;2023-08-31T04:04:01;3.53;;;3.23;;
15624;SDS011;7912;51.376;6.126;2023-08-31T04:06:30;4.57;;;3.30;;
15624;SDS011;7912;51.376;6.126;2023-08-31T04:08:58;5.73;;;3.40;;
15624;SDS011;7912;51.376;6.126;2023-08-31T04:11:25;3.53;;;3.23;;
15624;SDS011;7912;51.376;6.126;2023-08-31T04:13:53;3.53;;;3.23;;
15624;SDS011;7912;51.376;6.126;2023-08-31T04:16:20;5.60;;;3.30;;
15624;SDS011;7912;51.376;6.126;2023-08-31T04:18:48;4.17;;;3.60;;
15624;SDS011;7912;51.376;6.126;2023-08-31T04:21:17;3.77;;;3.47;;
15624;SDS011;7912;51.376;6.126;2023-08-31T04:23:45;4.00;;;3.30;;
15624;SDS011;7912;51.376;6.126;2023-08-31T04:26:13;3.63;;;3.33;;
15624;SDS011;7912;51.376;6.126;2023-08-31T04:28:41;3.97;;;3.57;;
15624;SDS011;7912;51.376;6.126;2023-08-31T04:31:09;4.47;;;4.07;;
15624;SDS011;7912;51.376;6.126;2023-08-31T04:33:37;3.90;;;3.60;;
15624;SDS011;7912;51.376;6.126;2023-08-31T04:36:05;5.00;;;4.00;;
15624;SDS011;7912;51.376;6.126;2023-08-31T04:38:37;4.30;;;3.90;;
15624;SDS011;7912;51.376;6.126;2023-08-31T04:41:04;4.87;;;3.87;;
15624;SDS011;7912;51.376;6.126;2023-08-31T04:43:32;4.27;;;3.50;;
15624;SDS011;7912;51.376;6.126;2023-08-31T04:46:02;3.83;;;3.53;;
15624;SDS011;7912;51.376;6.126;2023-08-31T04:48:30;4.20;;;3.67;;
15624;SDS011;7912;51.376;6.126;2023-08-31T04:50:57;5.93;;;3.90;;
15624;SDS011;7912;51.376;6.126;2023-08-31T04:53:25;5.83;;;4.43;;
15624;SDS011;7912;51.376;6.126;2023-08-31T04:55:52;4.37;;;3.97;;
15624;SDS011;7912;51.376;6.126;2023-08-31T04:58:22;5.43;;;4.33;;
15624;SDS011;7912;51.376;6.126;2023-08-31T05:00:51;4.23;;;3.83;;
15624;SDS011;7912;51.376;6.126;2023-08-31T05:03:18;3.93;;;3.63;;
15624;SDS011;7912;51.376;6.126;2023-08-31T05:05:46;4.77;;;4.20;;
15624;SDS011;7912;51.376;6.126;2023-08-31T05:08:13;4.90;;;3.97;;
15624;SDS011;7912;51.376;6.126;2023-08-31T05:10:41;4.00;;;3.70;;
15624;SDS011;7912;51.376;6.126;2023-08-31T05:13:09;4.43;;;4.00;;
15624;SDS011;7912;51.376;6.126;2023-08-31T05:15:37;4.57;;;4.17;;
15624;SDS011;7912;51.376;6.126;2023-08-31T05:18:04;5.97;;;4.20;;
15624;SDS011;7912;51.376;6.126;2023-08-31T05:20:35;4.00;;;3.70;;
15624;SDS011;7912;51.376;6.126;2023-08-31T05:23:02;5.23;;;4.30;;
15624;SDS011;7912;51.376;6.126;2023-08-31T05:25:30;5.00;;;4.10;;
15624;SDS011;7912;51.376;6.126;2023-08-31T05:27:57;4.97;;;4.30;;
15624;SDS011;7912;51.376;6.126;2023-08-31T05:30:25;5.40;;;4.33;;
15624;SDS011;7912;51.376;6.126;2023-08-31T05:32:52;4.90;;;4.50;;
15624;SDS011;7912;51.376;6.126;2023-08-31T05:35:20;6.43;;;4.20;;
15624;SDS011;7912;51.376;6.126;2023-08-31T05:37:48;4.97;;;4.17;;
15624;SDS011;7912;51.376;6.126;2023-08-31T05:40:15;4.97;;;4.40;;
15624;SDS011;7912;51.376;6.126;2023-08-31T05:42:44;5.80;;;4.10;;
15624;SDS011;7912;51.376;6.126;2023-08-31T05:45:11;5.17;;;4.53;;
15624;SDS011;7912;51.376;6.126;2023-08-31T05:47:40;6.07;;;4.20;;
15624;SDS011;7912;51.376;6.126;2023-08-31T05:50:08;4.93;;;4.13;;
15624;SDS011;7912;51.376;6.126;2023-08-31T05:52:35;5.00;;;4.40;;
15624;SDS011;7912;51.376;6.126;2023-08-31T05:55:03;5.40;;;4.33;;
15624;SDS011;7912;51.376;6.126;2023-08-31T05:57:33;4.93;;;4.00;;
15624;SDS011;7912;51.376;6.126;2023-08-31T06:00:00;4.53;;;4.13;;
15624;SDS011;7912;51.376;6.126;2023-08-31T06:02:28;5.17;;;4.20;;
15624;SDS011;7912;51.376;6.126;2023-08-31T06:04:55;4.97;;;3.63;;
15624;SDS011;7912;51.376;6.126;2023-08-31T06:07:23;4.47;;;4.03;;
15624;SDS011;7912;51.376;6.126;2023-08-31T06:09:50;4.77;;;4.00;;
15624;SDS011;7912;51.376;6.126;2023-08-31T06:12:17;4.20;;;3.80;;
15624;SDS011;7912;51.376;6.126;2023-08-31T06:14:45;6.00;;;3.93;;
15624;SDS011;7912;51.376;6.126;2023-08-31T06:17:12;4.87;;;4.47;;
15624;SDS011;7912;51.376;6.126;2023-08-31T06:19:40;5.57;;;4.30;;
15624;SDS011;7912;51.376;6.126;2023-08-31T06:22:08;4.87;;;4.30;;
15624;SDS011;7912;51.376;6.126;2023-08-31T06:24:36;5.53;;;4.37;;
15624;SDS011;7912;51.376;6.126;2023-08-31T06:27:04;5.93;;;4.17;;
15624;SDS011;7912;51.376;6.126;2023-08-31T06:29:31;6.00;;;4.57;;
15624;SDS011;7912;51.376;6.126;2023-08-31T06:31:59;6.33;;;4.40;;
15624;SDS011;7912;51.376;6.126;2023-08-31T06:34:26;4.73;;;4.27;;
15624;SDS011;7912;51.376;6.126;2023-08-31T06:36:53;5.73;;;4.20;;
15624;SDS011;7912;51.376;6.126;2023-08-31T06:39:21;4.80;;;4.37;;
15624;SDS011;7912;51.376;6.126;2023-08-31T06:41:48;5.57;;;4.83;;
15624;SDS011;7912;51.376;6.126;2023-08-31T06:44:18;4.10;;;3.67;;
15624;SDS011;7912;51.376;6.126;2023-08-31T06:46:45;5.80;;;4.27;;
15624;SDS011;7912;51.376;6.126;2023-08-31T06:49:13;4.43;;;3.97;;
15624;SDS011;7912;51.376;6.126;2023-08-31T06:51:41;4.80;;;4.30;;
15624;SDS011;7912;51.376;6.126;2023-08-31T06:54:09;4.43;;;4.00;;
15624;SDS011;7912;51.376;6.126;2023-08-31T06:56:36;4.17;;;3.77;;
15624;SDS011;7912;51.376;6.126;2023-08-31T06:59:03;4.77;;;4.37;;
15624;SDS011;7912;51.376;6.126;2023-08-31T07:01:31;6.93;;;4.33;;
15624;SDS011;7912;51.376;6.126;2023-08-31T07:04:01;4.70;;;4.07;;
15624;SDS011;7912;51.376;6.126;2023-08-31T07:06:31;5.40;;;4.17;;
15624;SDS011;7912;51.376;6.126;2023-08-31T07:09:02;5.90;;;4.37;;
15624;SDS011;7912;51.376;6.126;2023-08-31T07:11:32;4.30;;;3.90;;
15624;SDS011;7912;51.376;6.126;2023-08-31T07:14:00;4.20;;;3.63;;
15624;SDS011;7912;51.376;6.126;2023-08-31T07:16:28;4.87;;;3.93;;
15624;SDS011;7912;51.376;6.126;2023-08-31T07:18:55;6.87;;;4.40;;
15624;SDS011;7912;51.376;6.126;2023-08-31T07:21:23;4.83;;;3.80;;
15624;SDS011;7912;51.376;6.126;2023-08-31T07:23:50;4.40;;;4.00;;
15624;SDS011;7912;51.376;6.126;2023-08-31T07:26:17;4.47;;;4.03;;
15624;SDS011;7912;51.376;6.126;2023-08-31T07:28:45;4.70;;;4.30;;
15624;SDS011;7912;51.376;6.126;2023-08-31T07:31:13;5.53;;;3.53;;
15624;SDS011;7912;51.376;6.126;2023-08-31T07:33:42;5.70;;;3.77;;
15624;SDS011;7912;51.376;6.126;2023-08-31T07:36:13;4.43;;;3.90;;
15624;SDS011;7912;51.376;6.126;2023-08-31T07:38:42;5.87;;;3.97;;
15624;SDS011;7912;51.376;6.126;2023-08-31T07:41:09;4.40;;;3.83;;
15624;SDS011;7912;51.376;6.126;2023-08-31T07:43:36;4.93;;;4.43;;
15624;SDS011;7912;51.376;6.126;2023-08-31T07:46:10;4.93;;;3.93;;
15624;SDS011;7912;51.376;6.126;2023-08-31T07:48:38;6.37;;;4.00;;
15624;SDS011;7912;51.376;6.126;2023-08-31T07:51:05;5.13;;;4.10;;
15624;SDS011;7912;51.376;6.126;2023-08-31T07:53:33;6.17;;;3.53;;
15624;SDS011;7912;51.376;6.126;2023-08-31T07:56:00;5.37;;;4.30;;
15624;SDS011;7912;51.376;6.126;2023-08-31T07:58:28;5.33;;;4.10;;
15624;SDS011;7912;51.376;6.126;2023-08-31T08:00:55;4.67;;;4.20;;
15624;SDS011;7912;51.376;6.126;2023-08-31T08:03:23;6.27;;;3.83;;
15624;SDS011;7912;51.376;6.126;2023-08-31T08:05:55;5.80;;;4.30;;
15624;SDS011;7912;51.376;6.126;2023-08-31T08:08:22;4.70;;;3.90;;
15624;SDS011;7912;51.376;6.126;2023-08-31T08:10:53;6.53;;;4.33;;
15624;SDS011;7912;51.376;6.126;2023-08-31T08:13:21;5.20;;;4.00;;
15624;SDS011;7912;51.376;6.126;2023-08-31T08:15:49;6.23;;;4.13;;
15624;SDS011;7912;51.376;6.126;2023-08-31T08:18:16;6.07;;;3.83;;
15624;SDS011;7912;51.376;6.126;2023-08-31T08:20:46;5.30;;;4.10;;
15624;SDS011;7912;51.376;6.126;2023-08-31T08:23:15;6.97;;;4.27;;
15624;SDS011;7912;51.376;6.126;2023-08-31T08:25:43;4.50;;;3.73;;
15624;SDS011;7912;51.376;6.126;2023-08-31T08:28:11;7.23;;;4.10;;
15624;SDS011;7912;51.376;6.126;2023-08-31T08:30:38;4.63;;;3.67;;
15624;SDS011;7912;51.376;6.126;2023-08-31T08:33:06;4.63;;;3.60;;
15624;SDS011;7912;51.376;6.126;2023-08-31T08:35:37;4.03;;;3.63;;
15624;SDS011;7912;51.376;6.126;2023-08-31T08:38:05;6.17;;;3.60;;
15624;SDS011;7912;51.376;6.126;2023-08-31T08:40:33;5.33;;;4.00;;
15624;SDS011;7912;51.376;6.126;2023-08-31T08:43:01;4.80;;;3.60;;
15624;SDS011;7912;51.376;6.126;2023-08-31T08:45:38;4.70;;;3.20;;
15624;SDS011;7912;51.376;6.126;2023-08-31T08:48:08;5.77;;;3.50;;
15624;SDS011;7912;51.376;6.126;2023-08-31T08:50:36;4.43;;;3.10;;
15624;SDS011;7912;51.376;6.126;2023-08-31T08:53:04;3.97;;;3.00;;
15624;SDS011;7912;51.376;6.126;2023-08-31T08:55:33;4.40;;;3.27;;
15624;SDS011;7912;51.376;6.126;2023-08-31T08:58:01;3.47;;;3.10;;
15624;SDS011;7912;51.376;6.126;2023-08-31T09:00:30;4.43;;;3.47;;
15624;SDS011;7912;51.376;6.126;2023-08-31T09:03:00;4.03;;;3.17;;
15624;SDS011;7912;51.376;6.126;2023-08-31T09:05:31;4.03;;;3.07;;
15624;SDS011;7912;51.376;6.126;2023-08-31T09:08:00;4.77;;;3.30;;
15624;SDS011;7912;51.376;6.126;2023-08-31T09:16:54;5.10;;;2.83;;
15624;SDS011;7912;51.376;6.126;2023-08-31T09:19:23;4.37;;;3.20;;
15624;SDS011;7912;51.376;6.126;2023-08-31T09:21:56;4.00;;;3.40;;
15624;SDS011;7912;51.376;6.126;2023-08-31T09:24:24;4.10;;;3.17;;
15624;SDS011;7912;51.376;6.126;2023-08-31T09:26:52;5.90;;;3.53;;
15624;SDS011;7912;51.376;6.126;2023-08-31T09:29:24;6.60;;;3.60;;
15624;SDS011;7912;51.376;6.126;2023-08-31T09:31:52;4.30;;;3.40;;
15624;SDS011;7912;51.376;6.126;2023-08-31T09:34:19;4.53;;;3.13;;
15624;SDS011;7912;51.376;6.126;2023-08-31T09:36:48;3.53;;;2.87;;
15624;SDS011;7912;51.376;6.126;2023-08-31T09:39:17;5.10;;;4.57;;
15624;SDS011;7912;51.376;6.126;2023-08-31T09:41:52;5.17;;;3.63;;
15624;SDS011;7912;51.376;6.126;2023-08-31T09:44:21;3.83;;;3.20;;
15624;SDS011;7912;51.376;6.126;2023-08-31T09:46:50;5.13;;;3.40;;
15624;SDS011;7912;51.376;6.126;2023-08-31T09:49:20;5.30;;;3.20;;
15624;SDS011;7912;51.376;6.126;2023-08-31T09:51:49;4.73;;;3.07;;
15624;SDS011;7912;51.376;6.126;2023-08-31T09:54:21;4.83;;;3.30;;
15624;SDS011;7912;51.376;6.126;2023-08-31T09:56:50;6.10;;;3.50;;
15624;SDS011;7912;51.376;6.126;2023-08-31T09:59:22;3.97;;;3.10;;
15624;SDS011;7912;51.376;6.126;2023-08-31T10:01:53;4.17;;;2.60;;
15624;SDS011;7912;51.376;6.126;2023-08-31T10:04:23;3.50;;;2.50;;
15624;SDS011;7912;51.376;6.126;2023-08-31T10:06:51;3.13;;;2.60;;
15624;SDS011;7912;51.376;6.126;2023-08-31T10:09:19;3.40;;;2.73;;
15624;SDS011;7912;51.376;6.126;2023-08-31T10:12:22;4.40;;;3.30;;
15624;SDS011;7912;51.376;6.126;2023-08-31T10:14:58;3.87;;;2.80;;
15624;SDS011;7912;51.376;6.126;2023-08-31T10:17:27;4.67;;;3.00;;
15624;SDS011;7912;51.376;6.126;2023-08-31T10:19:57;3.03;;;2.57;;
15624;SDS011;7912;51.376;6.126;2023-08-31T10:22:26;4.70;;;2.90;;
15624;SDS011;7912;51.376;6.126;2023-08-31T10:24:59;3.70;;;2.93;;
15624;SDS011;7912;51.376;6.126;2023-08-31T10:27:36;4.23;;;2.93;;
15624;SDS011;7912;51.376;6.126;2023-08-31T10:33:19;4.27;;;3.53;;
15624;SDS011;7912;51.376;6.126;2023-08-31T10:35:54;5.10;;;2.57;;
15624;SDS011;7912;51.376;6.126;2023-08-31T10:41:03;5.33;;;2.40;;
15624;SDS011;7912;51.376;6.126;2023-08-31T10:44:30;2.27;;;2.00;;
15624;SDS011;7912;51.376;6.126;2023-08-31T10:47:08;4.40;;;2.30;;
15624;SDS011;7912;51.376;6.126;2023-08-31T10:53:07;4.57;;;2.47;;
15624;SDS011;7912;51.376;6.126;2023-08-31T10:55:51;4.47;;;2.27;;
15624;SDS011;7912;51.376;6.126;2023-08-31T10:58:19;3.63;;;2.07;;
15624;SDS011;7912;51.376;6.126;2023-08-31T11:00:50;3.60;;;2.23;;
15624;SDS011;7912;51.376;6.126;2023-08-31T11:03:29;2.70;;;2.20;;
15624;SDS011;7912;51.376;6.126;2023-08-31T11:06:22;4.30;;;2.50;;
15624;SDS011;7912;51.376;6.126;2023-08-31T11:08:51;3.40;;;1.93;;
15624;SDS011;7912;51.376;6.126;2023-08-31T11:11:19;2.80;;;1.70;;
15624;SDS011;7912;51.376;6.126;2023-08-31T11:13:58;3.23;;;2.00;;
15624;SDS011;7912;51.376;6.126;2023-08-31T11:16:54;2.70;;;1.77;;
15624;SDS011;7912;51.376;6.126;2023-08-31T11:19:29;2.73;;;2.17;;
15624;SDS011;7912;51.376;6.126;2023-08-31T11:21:58;3.23;;;2.30;;
15624;SDS011;7912;51.376;6.126;2023-08-31T11:24:30;2.43;;;2.00;;
15624;SDS011;7912;51.376;6.126;2023-08-31T11:26:59;3.93;;;2.00;;
15624;SDS011;7912;51.376;6.126;2023-08-31T11:29:32;3.17;;;1.90;;
15624;SDS011;7912;51.376;6.126;2023-08-31T11:31:59;3.03;;;1.90;;
15624;SDS011;7912;51.376;6.126;2023-08-31T11:34:27;2.47;;;1.77;;
15624;SDS011;7912;51.376;6.126;2023-08-31T11:36:54;3.00;;;1.87;;
15624;SDS011;7912;51.376;6.126;2023-08-31T11:39:22;3.43;;;1.93;;
15624;SDS011;7912;51.376;6.126;2023-08-31T11:41:51;2.40;;;1.90;;
15624;SDS011;7912;51.376;6.126;2023-08-31T11:48:06;2.97;;;1.70;;
15624;SDS011;7912;51.376;6.126;2023-08-31T11:50:36;4.17;;;2.20;;
15624;SDS011;7912;51.376;6.126;2023-08-31T11:53:06;3.77;;;2.10;;
15624;SDS011;7912;51.376;6.126;2023-08-31T11:55:34;2.60;;;2.10;;
15624;SDS011;7912;51.376;6.126;2023-08-31T11:58:02;2.50;;;1.80;;
15624;SDS011;7912;51.376;6.126;2023-08-31T12:00:30;3.30;;;2.20;;
15624;SDS011;7912;51.376;6.126;2023-08-31T12:03:00;3.83;;;2.20;;
15624;SDS011;7912;51.376;6.126;2023-08-31T12:05:29;4.07;;;2.93;;
15624;SDS011;7912;51.376;6.126;2023-08-31T12:08:14;4.03;;;2.60;;
15624;SDS011;7912;51.376;6.126;2023-08-31T12:10:53;4.07;;;2.33;;
15624;SDS011;7912;51.376;6.126;2023-08-31T12:13:25;2.93;;;2.10;;
15624;SDS011;7912;51.376;6.126;2023-08-31T12:20:07;3.10;;;2.10;;
15624;SDS011;7912;51.376;6.126;2023-08-31T12:22:37;2.93;;;2.30;;
15624;SDS011;7912;51.376;6.126;2023-08-31T12:25:05;4.93;;;2.60;;
15624;SDS011;7912;51.376;6.126;2023-08-31T12:27:38;3.07;;;2.17;;
15624;SDS011;7912;51.376;6.126;2023-08-31T12:30:05;4.93;;;2.40;;
15624;SDS011;7912;51.376;6.126;2023-08-31T12:32:36;3.10;;;2.50;;
15624;SDS011;7912;51.376;6.126;2023-08-31T12:39:16;2.20;;;2.00;;
15624;SDS011;7912;51.376;6.126;2023-08-31T12:41:44;4.50;;;2.43;;
15624;SDS011;7912;51.376;6.126;2023-08-31T12:44:11;2.60;;;2.03;;
15624;SDS011;7912;51.376;6.126;2023-08-31T12:46:39;3.80;;;2.10;;
15624;SDS011;7912;51.376;6.126;2023-08-31T12:49:06;2.63;;;1.90;;
15624;SDS011;7912;51.376;6.126;2023-08-31T12:51:34;2.97;;;1.97;;
15624;SDS011;7912;51.376;6.126;2023-08-31T12:54:01;3.20;;;2.10;;
15624;SDS011;7912;51.376;6.126;2023-08-31T12:56:30;2.77;;;2.00;;
15624;SDS011;7912;51.376;6.126;2023-08-31T12:58:57;3.67;;;2.00;;
15624;SDS011;7912;51.376;6.126;2023-08-31T13:01:24;3.87;;;2.00;;
15624;SDS011;7912;51.376;6.126;2023-08-31T13:03:53;3.00;;;2.20;;
15624;SDS011;7912;51.376;6.126;2023-08-31T13:06:20;2.97;;;2.30;;
15624;SDS011;7912;51.376;6.126;2023-08-31T13:08:48;2.80;;;1.80;;
15624;SDS011;7912;51.376;6.126;2023-08-31T13:15:27;2.40;;;1.90;;
15624;SDS011;7912;51.376;6.126;2023-08-31T13:17:54;4.30;;;2.10;;
15624;SDS011;7912;51.376;6.126;2023-08-31T13:20:22;2.17;;;1.70;;
15624;SDS011;7912;51.376;6.126;2023-08-31T13:22:49;3.00;;;1.60;;
15624;SDS011;7912;51.376;6.126;2023-08-31T13:25:17;3.63;;;2.00;;
15624;SDS011;7912;51.376;6.126;2023-08-31T13:27:45;3.53;;;1.60;;
15624;SDS011;7912;51.376;6.126;2023-08-31T13:30:15;2.37;;;1.83;;
15624;SDS011;7912;51.376;6.126;2023-08-31T13:32:43;2.83;;;1.87;;
15624;SDS011;7912;51.376;6.126;2023-08-31T13:35:10;3.60;;;1.80;;
15624;SDS011;7912;51.376;6.126;2023-08-31T13:37:38;2.00;;;1.73;;
15624;SDS011;7912;51.376;6.126;2023-08-31T13:40:05;5.97;;;2.43;;
15624;SDS011;7912;51.376;6.126;2023-08-31T13:42:36;2.07;;;1.60;;
15624;SDS011;7912;51.376;6.126;2023-08-31T13:45:19;4.40;;;2.00;;
15624;SDS011;7912;51.376;6.126;2023-08-31T13:47:47;2.87;;;2.40;;
15624;SDS011;7912;51.376;6.126;2023-08-31T13:50:18;3.63;;;2.60;;
15624;SDS011;7912;51.376;6.126;2023-08-31T13:52:49;4.37;;;2.27;;
15624;SDS011;7912;51.376;6.126;2023-08-31T13:55:18;5.30;;;2.67;;
15624;SDS011;7912;51.376;6.126;2023-08-31T13:57:46;4.13;;;2.53;;
15624;SDS011;7912;51.376;6.126;2023-08-31T14:00:14;3.83;;;2.60;;
15624;SDS011;7912;51.376;6.126;2023-08-31T14:02:43;3.70;;;2.73;;
15624;SDS011;7912;51.376;6.126;2023-08-31T14:05:12;3.20;;;2.50;;
15624;SDS011;7912;51.376;6.126;2023-08-31T14:07:41;3.87;;;2.77;;
15624;SDS011;7912;51.376;6.126;2023-08-31T14:10:08;3.70;;;2.87;;
15624;SDS011;7912;51.376;6.126;2023-08-31T14:12:37;3.97;;;3.10;;
15624;SDS011;7912;51.376;6.126;2023-08-31T14:15:05;4.00;;;2.97;;
15624;SDS011;7912;51.376;6.126;2023-08-31T14:17:33;3.27;;;2.80;;
15624;SDS011;7912;51.376;6.126;2023-08-31T14:20:00;3.93;;;3.17;;
15624;SDS011;7912;51.376;6.126;2023-08-31T14:22:32;4.43;;;3.17;;
15624;SDS011;7912;51.376;6.126;2023-08-31T14:25:00;3.67;;;3.07;;
15624;SDS011;7912;51.376;6.126;2023-08-31T14:27:29;2.83;;;2.50;;
15624;SDS011;7912;51.376;6.126;2023-08-31T14:29:57;4.23;;;2.90;;
15624;SDS011;7912;51.376;6.126;2023-08-31T14:32:25;3.10;;;2.80;;
15624;SDS011;7912;51.376;6.126;2023-08-31T14:34:56;4.80;;;3.27;;
15624;SDS011;7912;51.376;6.126;2023-08-31T14:37:25;3.70;;;3.40;;
15624;SDS011;7912;51.376;6.126;2023-08-31T14:39:53;5.43;;;4.00;;
15624;SDS011;7912;51.376;6.126;2023-08-31T14:42:20;5.07;;;3.47;;
15624;SDS011;7912;51.376;6.126;2023-08-31T14:44:48;5.47;;;3.80;;
15624;SDS011;7912;51.376;6.126;2023-08-31T14:47:16;3.93;;;3.53;;
15624;SDS011;7912;51.376;6.126;2023-08-31T14:49:44;4.10;;;3.70;;
15624;SDS011;7912;51.376;6.126;2023-08-31T14:52:11;4.20;;;3.80;;
15624;SDS011;7912;51.376;6.126;2023-08-31T14:54:41;6.17;;;4.33;;
15624;SDS011;7912;51.376;6.126;2023-08-31T14:57:08;5.90;;;3.93;;
15624;SDS011;7912;51.376;6.126;2023-08-31T14:59:36;6.07;;;4.90;;
15624;SDS011;7912;51.376;6.126;2023-08-31T15:02:03;4.63;;;4.07;;
15624;SDS011;7912;51.376;6.126;2023-08-31T15:04:32;4.40;;;4.00;;
15624;SDS011;7912;51.376;6.126;2023-08-31T15:07:00;4.50;;;4.03;;
15624;SDS011;7912;51.376;6.126;2023-08-31T15:09:28;6.83;;;4.10;;
15624;SDS011;7912;51.376;6.126;2023-08-31T15:15:04;4.63;;;4.07;;
15624;SDS011;7912;51.376;6.126;2023-08-31T15:17:35;4.07;;;3.33;;
15624;SDS011;7912;51.376;6.126;2023-08-31T15:20:04;4.43;;;3.70;;
15624;SDS011;7912;51.376;6.126;2023-08-31T15:22:35;4.50;;;3.83;;
15624;SDS011;7912;51.376;6.126;2023-08-31T15:25:06;4.73;;;4.10;;
15624;SDS011;7912;51.376;6.126;2023-08-31T15:27:34;3.87;;;3.13;;
15624;SDS011;7912;51.376;6.126;2023-08-31T15:30:03;4.93;;;3.43;;
15624;SDS011;7912;51.376;6.126;2023-08-31T15:32:33;3.50;;;3.20;;
15624;SDS011;7912;51.376;6.126;2023-08-31T15:35:03;3.17;;;2.87;;
15624;SDS011;7912;51.376;6.126;2023-08-31T15:37:31;4.90;;;3.37;;
15624;SDS011;7912;51.376;6.126;2023-08-31T15:39:59;3.73;;;3.13;;
15624;SDS011;7912;51.376;6.126;2023-08-31T15:42:27;4.50;;;3.40;;
15624;SDS011;7912;51.376;6.126;2023-08-31T15:44:55;5.73;;;3.87;;
15624;SDS011;7912;51.376;6.126;2023-08-31T15:47:30;7.03;;;3.70;;
15624;SDS011;7912;51.376;6.126;2023-08-31T15:50:03;3.80;;;3.23;;
15624;SDS011;7912;51.376;6.126;2023-08-31T15:53:01;3.90;;;3.33;;
15624;SDS011;7912;51.376;6.126;2023-08-31T15:55:51;3.80;;;3.47;;